Time,TemperatureF,DewpointF,PressureIn,WindDirection,WindDirectionDegrees,WindSpeedMPH,WindSpeedGustMPH,Humidity,HourlyPrecipIn,Conditions,Clouds,dailyrainin,SoftwareType,DateUTC
2013-02-06 00:00:00,56.5,53.2,30.09,SW,216,0.0,0.0,89,0.00,,,0.00,meteohub,2013-02-06 05:00:00,
2013-02-06 00:05:00,56.5,53.2,30.09,SW,216,0.0,0.0,89,0.00,,,0.00,meteohub,2013-02-06 05:05:00,
2013-02-06 00:10:00,56.7,53.4,30.09,SW,216,0.0,0.0,89,0.00,,,0.00,meteohub,2013-02-06 05:10:00,
2013-02-06 00:15:00,56.7,53.4,30.09,SW,216,0.0,0.0,89,0.00,,,0.00,meteohub,2013-02-06 05:15:00,
2013-02-06 00:20:00,56.7,53.4,30.09,SW,216,0.0,0.0,89,0.00,,,0.00,meteohub,2013-02-06 05:20:00,
2013-02-06 00:25:00,56.5,53.2,30.09,SW,216,0.0,0.0,89,0.00,,,0.00,meteohub,2013-02-06 05:25:00,
2013-02-06 00:30:00,56.5,53.2,30.09,SW,216,0.0,0.0,89,0.00,,,0.00,meteohub,2013-02-06 05:30:00,
2013-02-06 00:35:00,56.5,53.2,30.09,SW,216,0.0,0.0,89,0.00,,,0.00,meteohub,2013-02-06 05:35:00,
2013-02-06 00:40:00,56.7,53.4,30.09,SW,216,0.0,0.0,89,0.00,,,0.00,meteohub,2013-02-06 05:40:00,
2013-02-06 00:45:00,56.7,53.4,30.09,SW,216,0.0,0.0,89,0.00,,,0.00,meteohub,2013-02-06 05:45:00,
2013-02-06 00:50:00,56.7,53.4,30.09,SW,216,0.0,0.0,89,0.00,,,0.00,meteohub,2013-02-06 05:50:00,
2013-02-06 00:55:00,56.7,53.4,30.09,SW,216,0.0,0.0,89,0.00,,,0.00,meteohub,2013-02-06 05:55:00,
2013-02-06 01:01:00,56.5,53.2,30.09,SW,216,0.0,0.0,89,0.00,,,0.00,meteohub,2013-02-06 06:01:00,
2013-02-06 01:05:00,56.5,53.2,30.08,SW,216,0.0,0.0,89,0.00,,,0.00,meteohub,2013-02-06 06:05:00,
2013-02-06 01:11:00,56.1,52.9,30.09,SW,216,0.0,0.0,89,0.00,,,0.00,meteohub,2013-02-06 06:11:00,
2013-02-06 01:16:00,56.1,52.9,30.09,SW,216,0.0,0.0,89,0.00,,,0.00,meteohub,2013-02-06 06:16:00,
2013-02-06 01:21:00,55.9,52.7,30.08,SW,216,0.0,0.0,89,0.00,,,0.00,meteohub,2013-02-06 06:21:00,
2013-02-06 01:26:00,55.8,52.5,30.08,SW,216,0.0,0.0,89,0.00,,,0.00,meteohub,2013-02-06 06:26:00,
2013-02-06 01:31:00,55.6,52.3,30.08,SW,216,0.0,0.0,89,0.00,,,0.00,meteohub,2013-02-06 06:31:00,
2013-02-06 01:36:00,55.6,52.3,30.09,SW,216,0.0,0.0,89,0.00,,,0.00,meteohub,2013-02-06 06:36:00,
2013-02-06 01:41:00,55.4,52.2,30.09,SW,216,0.0,0.0,89,0.00,,,0.00,meteohub,2013-02-06 06:41:00,
2013-02-06 01:46:00,55.4,52.2,30.09,SW,216,0.0,0.0,89,0.00,,,0.00,meteohub,2013-02-06 06:46:00,
2013-02-06 01:51:00,55.4,52.2,30.09,SW,216,0.0,0.0,89,0.00,,,0.00,meteohub,2013-02-06 06:51:00,
2013-02-06 01:56:00,55.4,52.2,30.09,SW,216,0.0,0.0,89,0.00,,,0.00,meteohub,2013-02-06 06:56:00,
2013-02-06 02:01:00,55.4,52.5,30.08,SW,216,0.0,0.0,90,0.00,,,0.00,meteohub,2013-02-06 07:01:00,
2013-02-06 02:06:00,55.6,52.7,30.09,SW,216,0.0,0.0,90,0.00,,,0.00,meteohub,2013-02-06 07:06:00,
2013-02-06 02:11:00,55.8,52.9,30.08,SW,216,0.0,1.0,90,0.00,,,0.00,meteohub,2013-02-06 07:11:00,
2013-02-06 02:16:00,55.9,53.1,30.08,SW,216,0.0,1.0,90,0.00,,,0.00,meteohub,2013-02-06 07:16:00,
2013-02-06 02:21:00,56.1,53.2,30.08,SW,216,0.0,1.0,90,0.00,,,0.00,meteohub,2013-02-06 07:21:00,
2013-02-06 02:26:00,56.3,53.4,30.07,SW,216,0.0,1.0,90,0.00,,,0.00,meteohub,2013-02-06 07:26:00,
2013-02-06 02:31:00,56.3,53.4,30.08,SW,216,0.0,1.0,90,0.00,,,0.00,meteohub,2013-02-06 07:31:00,
2013-02-06 02:36:00,56.5,53.6,30.08,SW,216,0.0,2.0,90,0.00,,,0.00,meteohub,2013-02-06 07:36:00,
2013-02-06 02:41:00,56.3,53.1,30.08,SW,216,1.0,2.0,89,0.00,,,0.00,meteohub,2013-02-06 07:41:00,
2013-02-06 02:46:00,56.5,53.2,30.08,SW,216,0.0,3.0,89,0.00,,,0.00,meteohub,2013-02-06 07:46:00,
2013-02-06 02:51:00,56.5,53.2,30.08,SW,216,0.0,3.0,89,0.00,,,0.00,meteohub,2013-02-06 07:51:00,
2013-02-06 02:57:00,56.5,53.2,30.08,SW,216,0.0,3.0,89,0.00,,,0.00,meteohub,2013-02-06 07:57:00,
2013-02-06 03:02:00,56.7,53.1,30.08,SW,216,0.0,2.0,88,0.00,,,0.00,meteohub,2013-02-06 08:02:00,
2013-02-06 03:07:00,56.7,53.1,30.08,SW,216,0.0,1.0,88,0.00,,,0.00,meteohub,2013-02-06 08:07:00,
2013-02-06 03:12:00,56.7,53.1,30.08,SW,216,0.0,0.0,88,0.00,,,0.00,meteohub,2013-02-06 08:12:00,
2013-02-06 03:17:00,56.8,53.6,30.08,SW,216,0.0,0.0,89,0.00,,,0.00,meteohub,2013-02-06 08:17:00,
2013-02-06 03:22:00,56.8,53.6,30.08,SW,216,0.0,1.0,89,0.00,,,0.00,meteohub,2013-02-06 08:22:00,
2013-02-06 03:27:00,56.8,53.6,30.08,SW,216,0.0,1.0,89,0.00,,,0.00,meteohub,2013-02-06 08:27:00,
2013-02-06 03:32:00,56.8,53.6,30.08,SW,216,0.0,1.0,89,0.00,,,0.00,meteohub,2013-02-06 08:32:00,
2013-02-06 03:37:00,56.8,53.6,30.08,SW,216,0.0,0.0,89,0.00,,,0.00,meteohub,2013-02-06 08:37:00,
2013-02-06 03:42:00,56.8,54.0,30.08,SW,216,0.0,0.0,90,0.00,,,0.00,meteohub,2013-02-06 08:42:00,
2013-02-06 03:47:00,56.8,54.0,30.08,SW,216,0.0,0.0,90,0.00,,,0.00,meteohub,2013-02-06 08:47:00,
2013-02-06 03:52:00,56.8,54.0,30.08,SW,216,0.0,0.0,90,0.00,,,0.00,meteohub,2013-02-06 08:52:00,
2013-02-06 03:57:00,56.8,54.0,30.08,SW,216,0.0,0.0,90,0.00,,,0.00,meteohub,2013-02-06 08:57:00,
2013-02-06 04:02:00,56.8,54.0,30.08,SW,216,0.0,0.0,90,0.00,,,0.00,meteohub,2013-02-06 09:02:00,
2013-02-06 04:07:00,56.7,53.8,30.08,SW,216,0.0,0.0,90,0.00,,,0.00,meteohub,2013-02-06 09:07:00,
2013-02-06 04:12:00,56.7,53.8,30.09,SW,216,0.0,0.0,90,0.00,,,0.00,meteohub,2013-02-06 09:12:00,
2013-02-06 04:17:00,56.8,54.0,30.09,SW,216,0.0,0.0,90,0.00,,,0.00,meteohub,2013-02-06 09:17:00,
2013-02-06 04:22:00,56.8,54.0,30.09,SW,216,0.0,0.0,90,0.00,,,0.00,meteohub,2013-02-06 09:22:00,
2013-02-06 04:27:00,57.0,54.5,30.09,SW,216,0.0,0.0,91,0.00,,,0.00,meteohub,2013-02-06 09:27:00,
2013-02-06 04:32:00,57.0,54.1,30.09,SW,216,0.0,0.0,90,0.00,,,0.00,meteohub,2013-02-06 09:32:00,
2013-02-06 04:37:00,57.0,54.5,30.09,SW,216,0.0,0.0,91,0.00,,,0.00,meteohub,2013-02-06 09:37:00,
2013-02-06 04:42:00,57.0,54.5,30.09,SW,216,1.0,0.0,91,0.00,,,0.00,meteohub,2013-02-06 09:42:00,
2013-02-06 04:47:00,57.0,54.5,30.09,SW,216,0.0,4.0,91,0.00,,,0.00,meteohub,2013-02-06 09:47:00,
2013-02-06 04:52:00,57.0,54.5,30.09,SW,216,0.0,4.0,91,0.00,,,0.00,meteohub,2013-02-06 09:52:00,
2013-02-06 04:57:00,57.0,54.1,30.09,SW,216,0.0,3.0,90,0.00,,,0.00,meteohub,2013-02-06 09:57:00,
2013-02-06 05:02:00,57.0,54.1,30.09,SW,216,1.0,3.0,90,0.00,,,0.00,meteohub,2013-02-06 10:02:00,
2013-02-06 05:07:00,57.0,54.1,30.09,SW,216,0.0,3.0,90,0.00,,,0.00,meteohub,2013-02-06 10:07:00,
2013-02-06 05:12:00,57.0,54.1,30.10,SW,216,0.0,3.0,90,0.00,,,0.00,meteohub,2013-02-06 10:12:00,
2013-02-06 05:17:00,57.0,54.1,30.10,SW,216,0.0,3.0,90,0.00,,,0.00,meteohub,2013-02-06 10:17:00,
2013-02-06 05:22:00,57.2,54.3,30.10,SW,216,0.0,2.0,90,0.00,,,0.00,meteohub,2013-02-06 10:22:00,
2013-02-06 05:27:00,57.4,54.5,30.10,SW,216,2.0,2.0,90,0.00,,,0.00,meteohub,2013-02-06 10:27:00,
2013-02-06 05:32:00,57.4,54.5,30.10,SW,216,1.0,2.0,90,0.00,,,0.00,meteohub,2013-02-06 10:32:00,
2013-02-06 05:37:00,57.4,54.5,30.10,SW,216,0.0,3.0,90,0.00,,,0.00,meteohub,2013-02-06 10:37:00,
2013-02-06 05:42:00,57.4,54.5,30.10,SW,216,1.0,3.0,90,0.00,,,0.00,meteohub,2013-02-06 10:42:00,
2013-02-06 05:47:00,57.4,54.5,30.10,SW,216,0.0,3.0,90,0.00,,,0.00,meteohub,2013-02-06 10:47:00,
2013-02-06 05:52:00,57.4,54.5,30.11,SW,216,1.0,3.0,90,0.00,,,0.00,meteohub,2013-02-06 10:52:00,
2013-02-06 05:57:00,57.4,54.5,30.11,SW,216,2.0,3.0,90,0.00,,,0.00,meteohub,2013-02-06 10:57:00,
2013-02-06 06:02:00,57.7,54.5,30.11,SW,216,3.0,7.0,89,0.00,,,0.00,meteohub,2013-02-06 11:02:00,
2013-02-06 06:07:00,57.9,54.7,30.11,SW,216,0.0,7.0,89,0.00,,,0.00,meteohub,2013-02-06 11:07:00,
2013-02-06 06:12:00,58.3,55.0,30.11,SW,216,2.0,7.0,89,0.00,,,0.00,meteohub,2013-02-06 11:12:00,
2013-02-06 06:17:00,58.3,55.0,30.12,SW,216,0.0,3.0,89,0.00,,,0.00,meteohub,2013-02-06 11:17:00,
2013-02-06 06:22:00,58.3,55.0,30.12,SW,216,0.0,2.0,89,0.00,,,0.00,meteohub,2013-02-06 11:22:00,
2013-02-06 06:27:00,58.3,55.0,30.12,SW,216,0.0,2.0,89,0.00,,,0.00,meteohub,2013-02-06 11:27:00,
2013-02-06 06:32:00,58.3,55.0,30.12,SW,216,0.0,2.0,89,0.00,,,0.00,meteohub,2013-02-06 11:32:00,
2013-02-06 06:37:00,58.3,55.0,30.12,SW,216,0.0,0.0,89,0.00,,,0.00,meteohub,2013-02-06 11:37:00,
2013-02-06 06:42:00,58.3,55.0,30.13,SW,216,0.0,0.0,89,0.00,,,0.00,meteohub,2013-02-06 11:42:00,
2013-02-06 06:47:00,58.1,54.9,30.12,SW,216,0.0,0.0,89,0.00,,,0.00,meteohub,2013-02-06 11:47:00,
2013-02-06 06:52:00,58.1,54.9,30.13,SW,216,0.0,0.0,89,0.00,,,0.00,meteohub,2013-02-06 11:52:00,
2013-02-06 06:57:00,57.9,54.7,30.13,SW,216,0.0,0.0,89,0.00,,,0.00,meteohub,2013-02-06 11:57:00,
2013-02-06 07:02:00,58.1,54.9,30.13,SW,216,0.0,0.0,89,0.00,,,0.00,meteohub,2013-02-06 12:02:00,
2013-02-06 07:07:00,58.1,54.9,30.13,SW,216,0.0,0.0,89,0.00,,,0.00,meteohub,2013-02-06 12:07:00,
2013-02-06 07:12:00,58.1,54.9,30.14,SW,216,0.0,1.0,89,0.00,,,0.00,meteohub,2013-02-06 12:12:00,
2013-02-06 07:17:00,58.1,54.9,30.14,SW,216,0.0,1.0,89,0.00,,,0.00,meteohub,2013-02-06 12:17:00,
2013-02-06 07:22:00,58.1,54.9,30.14,SW,216,0.0,1.0,89,0.00,,,0.00,meteohub,2013-02-06 12:22:00,
2013-02-06 07:27:00,58.1,55.2,30.14,SW,216,0.0,1.0,90,0.00,,,0.00,meteohub,2013-02-06 12:27:00,
2013-02-06 07:32:00,58.1,55.2,30.14,SW,216,0.0,2.0,90,0.00,,,0.00,meteohub,2013-02-06 12:32:00,
2013-02-06 07:37:00,58.1,55.2,30.15,SW,216,0.0,2.0,90,0.00,,,0.00,meteohub,2013-02-06 12:37:00,
2013-02-06 07:42:00,58.1,55.2,30.15,SW,216,0.0,2.0,90,0.00,,,0.00,meteohub,2013-02-06 12:42:00,
2013-02-06 07:47:00,58.1,55.2,30.15,SW,216,0.0,2.0,90,0.00,,,0.00,meteohub,2013-02-06 12:47:00,
2013-02-06 07:52:00,57.9,55.0,30.15,SW,216,1.0,2.0,90,0.00,,,0.00,meteohub,2013-02-06 12:52:00,
2013-02-06 07:57:00,57.9,54.7,30.15,SW,216,0.0,4.0,89,0.00,,,0.00,meteohub,2013-02-06 12:57:00,
2013-02-06 08:02:00,57.9,54.7,30.15,SW,216,0.0,4.0,89,0.00,,,0.00,meteohub,2013-02-06 13:02:00,
2013-02-06 08:07:00,58.3,55.0,30.16,SW,216,2.0,4.0,89,0.00,,,0.00,meteohub,2013-02-06 13:07:00,
2013-02-06 08:12:00,58.3,55.0,30.16,SW,216,0.0,2.0,89,0.00,,,0.00,meteohub,2013-02-06 13:12:00,
2013-02-06 08:17:00,58.5,55.2,30.16,SW,216,0.0,3.0,89,0.00,,,0.00,meteohub,2013-02-06 13:17:00,
2013-02-06 08:22:00,58.6,55.0,30.16,SW,216,0.0,3.0,88,0.00,,,0.00,meteohub,2013-02-06 13:22:00,
2013-02-06 08:27:00,58.8,55.2,30.16,SW,216,0.0,3.0,88,0.00,,,0.00,meteohub,2013-02-06 13:27:00,
2013-02-06 08:32:00,59.4,55.8,30.16,SW,216,1.0,2.0,88,0.00,,,0.00,meteohub,2013-02-06 13:32:00,
2013-02-06 08:37:00,59.5,55.9,30.16,SW,216,1.0,3.0,88,0.00,,,0.00,meteohub,2013-02-06 13:37:00,
2013-02-06 08:42:00,59.9,55.9,30.16,SW,216,0.0,3.0,87,0.00,,,0.00,meteohub,2013-02-06 13:42:00,
2013-02-06 08:47:00,60.3,56.1,30.16,SW,216,0.0,4.0,86,0.00,,,0.00,meteohub,2013-02-06 13:47:00,
2013-02-06 08:52:00,60.4,56.3,30.16,SW,216,0.0,4.0,86,0.00,,,0.00,meteohub,2013-02-06 13:52:00,
2013-02-06 08:57:00,60.6,56.1,30.16,SW,216,0.0,4.0,85,0.00,,,0.00,meteohub,2013-02-06 13:57:00,
2013-02-06 09:02:00,61.0,56.8,30.16,SW,216,0.0,3.0,86,0.00,,,0.00,meteohub,2013-02-06 14:02:00,
2013-02-06 09:08:00,61.2,56.7,30.16,SW,216,0.0,3.0,85,0.00,,,0.00,meteohub,2013-02-06 14:08:00,
2013-02-06 09:13:00,61.5,57.0,30.16,SW,216,0.0,2.0,85,0.00,,,0.00,meteohub,2013-02-06 14:13:00,
2013-02-06 09:18:00,61.7,57.2,30.16,SW,216,0.0,0.0,85,0.00,,,0.00,meteohub,2013-02-06 14:18:00,
2013-02-06 09:23:00,62.1,57.6,30.16,SW,216,0.0,0.0,85,0.00,,,0.00,meteohub,2013-02-06 14:23:00,
2013-02-06 09:28:00,62.2,57.4,30.16,SW,216,0.0,0.0,84,0.00,,,0.00,meteohub,2013-02-06 14:28:00,
2013-02-06 09:33:00,62.2,57.4,30.16,SW,216,0.0,0.0,84,0.00,,,0.00,meteohub,2013-02-06 14:33:00,
2013-02-06 09:38:00,62.4,57.9,30.16,SW,216,0.0,1.0,85,0.00,,,0.00,meteohub,2013-02-06 14:38:00,
2013-02-06 09:43:00,62.6,58.1,30.17,SW,216,0.0,1.0,85,0.00,,,0.00,meteohub,2013-02-06 14:43:00,
2013-02-06 09:48:00,62.8,58.3,30.17,SW,216,0.0,1.0,85,0.00,,,0.00,meteohub,2013-02-06 14:48:00,
2013-02-06 09:53:00,63.0,58.1,30.17,SW,216,0.0,1.0,84,0.00,,,0.00,meteohub,2013-02-06 14:53:00,
2013-02-06 09:58:00,63.1,57.9,30.17,SW,216,0.0,1.0,83,0.00,,,0.00,meteohub,2013-02-06 14:58:00,
2013-02-06 10:03:00,63.3,58.1,30.17,SW,216,0.0,1.0,83,0.00,,,0.00,meteohub,2013-02-06 15:03:00,
2013-02-06 10:08:00,63.5,58.3,30.17,SW,216,0.0,0.0,83,0.00,,,0.00,meteohub,2013-02-06 15:08:00,
2013-02-06 10:13:00,63.7,58.5,30.17,SW,216,0.0,0.0,83,0.00,,,0.00,meteohub,2013-02-06 15:13:00,
2013-02-06 10:18:00,63.9,58.3,30.17,SW,216,0.0,0.0,82,0.00,,,0.00,meteohub,2013-02-06 15:18:00,
2013-02-06 10:23:00,64.0,58.5,30.18,SW,216,0.0,1.0,82,0.00,,,0.00,meteohub,2013-02-06 15:23:00,
2013-02-06 10:28:00,64.2,58.6,30.18,SW,216,0.0,1.0,82,0.00,,,0.00,meteohub,2013-02-06 15:28:00,
2013-02-06 10:33:00,64.6,59.0,30.18,SW,216,0.0,1.0,82,0.00,,,0.00,meteohub,2013-02-06 15:33:00,
2013-02-06 10:38:00,64.8,58.5,30.18,SW,216,0.0,0.0,80,0.00,,,0.00,meteohub,2013-02-06 15:38:00,
2013-02-06 10:43:00,64.6,57.9,30.18,SW,216,0.0,1.0,79,0.00,,,0.00,meteohub,2013-02-06 15:43:00,
2013-02-06 10:48:00,64.6,58.3,30.18,SW,216,0.0,1.0,80,0.00,,,0.00,meteohub,2013-02-06 15:48:00,
2013-02-06 10:53:00,64.6,58.6,30.18,SW,216,0.0,1.0,81,0.00,,,0.00,meteohub,2013-02-06 15:53:00,
2013-02-06 10:58:00,64.6,58.3,30.18,SW,216,0.0,1.0,80,0.00,,,0.00,meteohub,2013-02-06 15:58:00,
2013-02-06 11:03:00,64.8,58.8,30.18,SW,216,0.0,1.0,81,0.00,,,0.00,meteohub,2013-02-06 16:03:00,
2013-02-06 11:08:00,64.9,58.6,30.18,SW,216,0.0,1.0,80,0.00,,,0.00,meteohub,2013-02-06 16:08:00,
2013-02-06 11:13:00,64.9,58.6,30.18,SW,216,0.0,2.0,80,0.00,,,0.00,meteohub,2013-02-06 16:13:00,
2013-02-06 11:18:00,65.1,58.5,30.18,SW,216,0.0,2.0,79,0.00,,,0.00,meteohub,2013-02-06 16:18:00,
2013-02-06 11:23:00,65.1,58.8,30.18,SW,216,1.0,4.0,80,0.00,,,0.00,meteohub,2013-02-06 16:23:00,
2013-02-06 11:28:00,65.1,58.5,30.18,SW,216,0.0,5.0,79,0.00,,,0.00,meteohub,2013-02-06 16:28:00,
2013-02-06 11:33:00,65.1,58.5,30.18,SW,216,0.0,5.0,79,0.00,,,0.00,meteohub,2013-02-06 16:33:00,
2013-02-06 11:38:00,65.5,59.2,30.18,SW,216,1.0,4.0,80,0.00,,,0.00,meteohub,2013-02-06 16:38:00,
2013-02-06 11:43:00,65.5,58.5,30.18,SW,216,1.0,4.0,78,0.00,,,0.00,meteohub,2013-02-06 16:43:00,
2013-02-06 11:48:00,65.7,58.6,30.18,SW,216,2.0,4.0,78,0.00,,,0.00,meteohub,2013-02-06 16:48:00,
2013-02-06 11:53:00,66.0,57.9,30.17,SW,216,5.0,5.0,75,0.00,,,0.00,meteohub,2013-02-06 16:53:00,
2013-02-06 11:58:00,66.4,58.3,30.17,SW,214,3.0,5.0,75,0.00,,,0.00,meteohub,2013-02-06 16:58:00,
2013-02-06 12:03:00,66.9,58.8,30.17,SSE,166,4.0,5.0,75,0.00,,,0.00,meteohub,2013-02-06 17:03:00,
2013-02-06 12:08:00,67.5,58.1,30.17,SE,125,5.0,7.0,72,0.00,,,0.00,meteohub,2013-02-06 17:08:00,
2013-02-06 12:13:00,67.6,57.6,30.17,South,182,3.0,7.0,70,0.00,,,0.00,meteohub,2013-02-06 17:13:00,
2013-02-06 12:18:00,68.5,57.6,30.17,ESE,103,1.0,9.0,68,0.00,,,0.00,meteohub,2013-02-06 17:18:00,
2013-02-06 12:23:00,68.7,56.8,30.17,ESE,120,2.0,9.0,66,0.00,,,0.00,meteohub,2013-02-06 17:23:00,
2013-02-06 12:28:00,69.3,57.4,30.17,ESE,120,3.0,8.0,66,0.00,,,0.00,meteohub,2013-02-06 17:28:00,
2013-02-06 12:33:00,69.4,57.9,30.17,SE,127,3.0,7.0,67,0.00,,,0.00,meteohub,2013-02-06 17:33:00,
2013-02-06 12:39:00,70.0,59.4,30.16,East,100,3.0,8.0,69,0.00,,,0.00,meteohub,2013-02-06 17:39:00,
2013-02-06 12:44:00,70.7,60.8,30.16,SE,139,0.0,8.0,71,0.00,,,0.00,meteohub,2013-02-06 17:44:00,
2013-02-06 12:49:00,72.0,59.9,30.15,SE,136,1.0,8.0,66,0.00,,,0.00,meteohub,2013-02-06 17:49:00,
2013-02-06 12:54:00,72.1,59.4,30.15,SSE,150,0.0,6.0,64,0.00,,,0.00,meteohub,2013-02-06 17:54:00,
2013-02-06 12:59:00,71.8,60.3,30.15,South,186,0.0,6.0,67,0.00,,,0.00,meteohub,2013-02-06 17:59:00,
2013-02-06 13:04:00,72.0,59.9,30.15,SSE,150,6.0,6.0,66,0.00,,,0.00,meteohub,2013-02-06 18:04:00,
2013-02-06 13:09:00,71.6,60.1,30.14,East,94,2.0,9.0,67,0.00,,,0.00,meteohub,2013-02-06 18:09:00,
2013-02-06 13:14:00,71.8,59.4,30.14,SE,144,1.0,9.0,65,0.00,,,0.00,meteohub,2013-02-06 18:14:00,
2013-02-06 13:19:00,71.6,58.8,30.14,East,89,2.0,9.0,64,0.00,,,0.00,meteohub,2013-02-06 18:19:00,
2013-02-06 13:24:00,71.4,59.5,30.14,East,87,4.0,8.0,66,0.00,,,0.00,meteohub,2013-02-06 18:24:00,
2013-02-06 13:29:00,70.9,59.7,30.13,ENE,60,2.0,8.0,68,0.00,,,0.00,meteohub,2013-02-06 18:29:00,
2013-02-06 13:34:00,71.1,59.9,30.13,ENE,63,1.0,7.0,68,0.00,,,0.00,meteohub,2013-02-06 18:34:00,
2013-02-06 13:39:00,70.9,59.0,30.13,East,86,6.0,7.0,66,0.00,,,0.00,meteohub,2013-02-06 18:39:00,
2013-02-06 13:44:00,70.3,59.4,30.13,ESE,112,2.0,7.0,68,0.00,,,0.00,meteohub,2013-02-06 18:44:00,
2013-02-06 13:49:00,70.2,59.2,30.13,SSE,147,3.0,6.0,68,0.00,,,0.00,meteohub,2013-02-06 18:49:00,
2013-02-06 13:54:00,70.0,59.0,30.13,ESE,120,3.0,6.0,68,0.00,,,0.00,meteohub,2013-02-06 18:54:00,
2013-02-06 13:59:00,69.6,58.6,30.13,ESE,119,3.0,12.0,68,0.00,,,0.00,meteohub,2013-02-06 18:59:00,
2013-02-06 14:04:00,69.1,58.1,30.13,East,89,5.0,12.0,68,0.00,,,0.00,meteohub,2013-02-06 19:04:00,
2013-02-06 14:09:00,68.7,59.0,30.13,ESE,111,2.0,12.0,71,0.00,,,0.00,meteohub,2013-02-06 19:09:00,
2013-02-06 14:14:00,68.5,59.2,30.12,East,89,3.0,8.0,72,0.00,,,0.00,meteohub,2013-02-06 19:14:00,
2013-02-06 14:19:00,67.8,58.5,30.12,East,92,5.0,8.0,72,0.00,,,0.00,meteohub,2013-02-06 19:19:00,
2013-02-06 14:24:00,67.5,58.8,30.12,East,80,3.0,7.0,74,0.00,,,0.00,meteohub,2013-02-06 19:24:00,
2013-02-06 14:30:00,67.3,58.6,30.12,East,87,4.0,7.0,74,0.00,,,0.00,meteohub,2013-02-06 19:30:00,
2013-02-06 14:35:00,67.1,58.5,30.12,ENE,73,2.0,7.0,74,0.00,,,0.00,meteohub,2013-02-06 19:35:00,
2013-02-06 14:40:00,67.1,58.8,30.13,ENE,74,0.0,7.0,75,0.00,,,0.00,meteohub,2013-02-06 19:40:00,
2013-02-06 14:45:00,67.3,59.0,30.13,ENE,73,3.0,7.0,75,0.00,,,0.00,meteohub,2013-02-06 19:45:00,
2013-02-06 14:50:00,67.1,58.8,30.12,NE,52,3.0,6.0,75,0.00,,,0.00,meteohub,2013-02-06 19:50:00,
2013-02-06 14:55:00,66.9,58.8,30.12,NE,53,3.0,5.0,75,0.00,,,0.00,meteohub,2013-02-06 19:55:00,
2013-02-06 15:00:00,66.7,58.1,30.12,ENE,58,4.0,7.0,74,0.00,,,0.00,meteohub,2013-02-06 20:00:00,
2013-02-06 15:05:00,66.4,57.9,30.12,NE,56,0.0,7.0,74,0.00,,,0.00,meteohub,2013-02-06 20:05:00,
2013-02-06 15:10:00,66.0,57.9,30.12,NE,56,2.0,7.0,75,0.00,,,0.00,meteohub,2013-02-06 20:10:00,
2013-02-06 15:15:00,65.8,58.1,30.12,NE,56,1.0,7.0,76,0.00,,,0.00,meteohub,2013-02-06 20:15:00,
2013-02-06 15:20:00,65.7,57.9,30.12,NE,56,4.0,5.0,76,0.00,,,0.00,meteohub,2013-02-06 20:20:00,
2013-02-06 15:25:00,65.5,58.1,30.12,NE,56,4.0,5.0,77,0.00,,,0.00,meteohub,2013-02-06 20:25:00,
2013-02-06 15:30:00,65.1,57.7,30.12,NE,56,1.0,5.0,77,0.00,,,0.00,meteohub,2013-02-06 20:30:00,
2013-02-06 15:35:00,64.9,57.6,30.12,NE,56,0.0,5.0,77,0.00,,,0.00,meteohub,2013-02-06 20:35:00,
2013-02-06 15:40:00,64.8,57.4,30.12,ENE,57,2.0,5.0,77,0.00,,,0.00,meteohub,2013-02-06 20:40:00,
2013-02-06 15:45:00,64.6,57.6,30.12,ENE,57,3.0,5.0,78,0.00,,,0.00,meteohub,2013-02-06 20:45:00,
2013-02-06 15:50:00,64.2,57.2,30.12,ENE,57,0.0,6.0,78,0.00,,,0.00,meteohub,2013-02-06 20:50:00,
2013-02-06 15:55:00,64.2,57.6,30.12,ENE,61,4.0,6.0,79,0.00,,,0.00,meteohub,2013-02-06 20:55:00,
2013-02-06 16:00:00,64.0,57.4,30.13,ENE,61,1.0,6.0,79,0.00,,,0.00,meteohub,2013-02-06 21:00:00,
2013-02-06 16:05:00,64.0,57.4,30.12,ENE,61,3.0,6.0,79,0.00,,,0.00,meteohub,2013-02-06 21:05:00,
2013-02-06 16:10:00,64.2,57.9,30.13,ENE,61,1.0,6.0,80,0.00,,,0.00,meteohub,2013-02-06 21:10:00,
2013-02-06 16:15:00,64.2,57.9,30.13,ENE,61,0.0,4.0,80,0.00,,,0.00,meteohub,2013-02-06 21:15:00,
2013-02-06 16:20:00,64.4,57.7,30.13,ENE,61,3.0,5.0,79,0.00,,,0.00,meteohub,2013-02-06 21:20:00,
2013-02-06 16:25:00,64.8,58.1,30.13,ENE,61,1.0,5.0,79,0.00,,,0.00,meteohub,2013-02-06 21:25:00,
2013-02-06 16:30:00,64.9,58.3,30.13,ENE,61,0.0,6.0,79,0.00,,,0.00,meteohub,2013-02-06 21:30:00,
2013-02-06 16:35:00,64.9,57.9,30.13,ENE,61,0.0,7.0,78,0.00,,,0.00,meteohub,2013-02-06 21:35:00,
2013-02-06 16:40:00,64.9,57.6,30.13,ENE,61,2.0,7.0,77,0.00,,,0.00,meteohub,2013-02-06 21:40:00,
2013-02-06 16:45:00,64.9,57.6,30.13,ENE,61,0.0,7.0,77,0.00,,,0.00,meteohub,2013-02-06 21:45:00,
2013-02-06 16:50:00,64.8,57.4,30.13,ENE,76,2.0,6.0,77,0.00,,,0.00,meteohub,2013-02-06 21:50:00,
2013-02-06 16:55:00,64.6,57.2,30.13,ENE,67,4.0,7.0,77,0.00,,,0.00,meteohub,2013-02-06 21:55:00,
2013-02-06 17:00:00,64.6,57.6,30.13,ENE,67,2.0,7.0,78,0.00,,,0.00,meteohub,2013-02-06 22:00:00,
2013-02-06 17:05:00,64.4,57.0,30.13,ENE,67,0.0,6.0,77,0.00,,,0.00,meteohub,2013-02-06 22:05:00,
2013-02-06 17:10:00,64.2,56.8,30.13,ENE,67,0.0,6.0,77,0.00,,,0.00,meteohub,2013-02-06 22:10:00,
2013-02-06 17:15:00,64.2,56.8,30.13,ENE,67,2.0,6.0,77,0.00,,,0.00,meteohub,2013-02-06 22:15:00,
2013-02-06 17:20:00,64.0,56.7,30.13,ENE,67,0.0,5.0,77,0.00,,,0.00,meteohub,2013-02-06 22:20:00,
2013-02-06 17:25:00,64.0,57.0,30.13,ENE,67,0.0,5.0,78,0.00,,,0.00,meteohub,2013-02-06 22:25:00,
2013-02-06 17:30:00,64.0,56.7,30.13,ENE,67,3.0,5.0,77,0.00,,,0.00,meteohub,2013-02-06 22:30:00,
2013-02-06 17:36:00,64.0,56.7,30.14,ENE,67,2.0,5.0,77,0.00,,,0.00,meteohub,2013-02-06 22:36:00,
2013-02-06 17:41:00,64.0,57.0,30.14,ENE,67,0.0,5.0,78,0.00,,,0.00,meteohub,2013-02-06 22:41:00,
2013-02-06 17:46:00,64.0,57.0,30.14,ENE,67,1.0,5.0,78,0.00,,,0.00,meteohub,2013-02-06 22:46:00,
2013-02-06 17:51:00,63.9,56.8,30.13,ENE,66,0.0,5.0,78,0.00,,,0.00,meteohub,2013-02-06 22:51:00,
2013-02-06 17:56:00,63.7,57.0,30.13,ENE,66,0.0,6.0,79,0.00,,,0.00,meteohub,2013-02-06 22:56:00,
2013-02-06 18:01:00,63.7,57.0,30.14,ENE,66,2.0,6.0,79,0.00,,,0.00,meteohub,2013-02-06 23:01:00,
2013-02-06 18:06:00,63.3,57.0,30.13,ENE,66,0.0,4.0,80,0.00,,,0.00,meteohub,2013-02-06 23:06:00,
2013-02-06 18:11:00,63.1,56.8,30.13,ENE,66,0.0,4.0,80,0.00,,,0.00,meteohub,2013-02-06 23:11:00,
2013-02-06 18:16:00,63.0,57.0,30.13,ENE,66,0.0,4.0,81,0.00,,,0.00,meteohub,2013-02-06 23:16:00,
2013-02-06 18:21:00,63.0,57.0,30.13,ENE,66,2.0,4.0,81,0.00,,,0.00,meteohub,2013-02-06 23:21:00,
2013-02-06 18:26:00,62.8,56.8,30.13,ENE,66,2.0,4.0,81,0.00,,,0.00,meteohub,2013-02-06 23:26:00,
2013-02-06 18:31:00,62.6,57.0,30.13,ENE,66,1.0,5.0,82,0.00,,,0.00,meteohub,2013-02-06 23:31:00,
2013-02-06 18:36:00,62.4,56.8,30.13,ENE,66,0.0,5.0,82,0.00,,,0.00,meteohub,2013-02-06 23:36:00,
2013-02-06 18:41:00,62.2,56.7,30.13,ENE,66,1.0,5.0,82,0.00,,,0.00,meteohub,2013-02-06 23:41:00,
2013-02-06 18:46:00,62.2,57.0,30.14,ENE,66,0.0,4.0,83,0.00,,,0.00,meteohub,2013-02-06 23:46:00,
2013-02-06 18:51:00,62.1,56.8,30.14,ENE,66,0.0,3.0,83,0.00,,,0.00,meteohub,2013-02-06 23:51:00,
2013-02-06 18:56:00,62.1,57.2,30.14,ENE,66,0.0,3.0,84,0.00,,,0.00,meteohub,2013-02-06 23:56:00,
2013-02-06 19:01:00,61.9,57.0,30.14,ENE,66,0.0,3.0,84,0.00,,,0.00,meteohub,2013-02-07 00:01:00,
2013-02-06 19:06:00,61.7,56.8,30.14,ENE,66,0.0,3.0,84,0.00,,,0.00,meteohub,2013-02-07 00:06:00,
2013-02-06 19:11:00,61.5,57.0,30.14,ENE,66,0.0,2.0,85,0.00,,,0.00,meteohub,2013-02-07 00:11:00,
2013-02-06 19:16:00,61.5,57.0,30.14,ENE,66,0.0,2.0,85,0.00,,,0.00,meteohub,2013-02-07 00:16:00,
2013-02-06 19:21:00,61.3,56.8,30.14,ENE,66,0.0,2.0,85,0.00,,,0.00,meteohub,2013-02-07 00:21:00,
2013-02-06 19:26:00,61.3,57.2,30.14,ENE,66,0.0,0.0,86,0.00,,,0.00,meteohub,2013-02-07 00:26:00,
2013-02-06 19:31:00,61.5,57.4,30.14,ENE,66,0.0,1.0,86,0.00,,,0.00,meteohub,2013-02-07 00:31:00,
2013-02-06 19:36:00,61.5,57.4,30.14,ENE,66,0.0,1.0,86,0.00,,,0.00,meteohub,2013-02-07 00:36:00,
2013-02-06 19:41:00,61.5,57.4,30.14,ENE,66,0.0,1.0,86,0.00,,,0.00,meteohub,2013-02-07 00:41:00,
2013-02-06 19:46:00,61.5,57.4,30.14,ENE,66,0.0,2.0,86,0.00,,,0.00,meteohub,2013-02-07 00:46:00,
2013-02-06 19:51:00,61.5,57.6,30.14,ENE,66,0.0,2.0,87,0.00,,,0.00,meteohub,2013-02-07 00:51:00,
2013-02-06 19:56:00,61.9,57.9,30.14,ENE,66,2.0,5.0,87,0.00,,,0.00,meteohub,2013-02-07 00:56:00,
2013-02-06 20:01:00,62.1,58.1,30.14,ENE,66,0.0,5.0,87,0.00,,,0.00,meteohub,2013-02-07 01:01:00,
2013-02-06 20:07:00,62.1,58.1,30.14,ENE,66,3.0,5.0,87,0.00,,,0.00,meteohub,2013-02-07 01:07:00,
2013-02-06 20:12:00,62.2,58.3,30.14,ENE,66,1.0,4.0,87,0.00,,,0.00,meteohub,2013-02-07 01:12:00,
2013-02-06 20:17:00,62.4,58.1,30.14,ENE,66,3.0,4.0,86,0.00,,,0.00,meteohub,2013-02-07 01:17:00,
2013-02-06 20:22:00,62.4,58.1,30.14,ENE,68,3.0,4.0,86,0.00,,,0.00,meteohub,2013-02-07 01:22:00,
2013-02-06 20:27:00,62.6,58.3,30.14,ENE,68,0.0,5.0,86,0.00,,,0.00,meteohub,2013-02-07 01:27:00,
2013-02-06 20:32:00,62.6,58.3,30.14,ENE,67,1.0,5.0,86,0.00,,,0.00,meteohub,2013-02-07 01:32:00,
2013-02-06 20:37:00,62.6,58.3,30.14,ENE,65,2.0,5.0,86,0.00,,,0.00,meteohub,2013-02-07 01:37:00,
2013-02-06 20:42:00,62.6,58.3,30.14,ENE,65,4.0,6.0,86,0.00,,,0.00,meteohub,2013-02-07 01:42:00,
2013-02-06 20:47:00,62.6,58.3,30.15,ENE,65,1.0,6.0,86,0.00,,,0.00,meteohub,2013-02-07 01:47:00,
2013-02-06 20:52:00,62.4,58.1,30.15,ENE,65,2.0,5.0,86,0.00,,,0.00,meteohub,2013-02-07 01:52:00,
2013-02-06 20:57:00,62.4,58.1,30.15,ENE,65,2.0,5.0,86,0.00,,,0.00,meteohub,2013-02-07 01:57:00,
2013-02-06 21:02:00,62.4,58.1,30.15,ENE,65,0.0,5.0,86,0.00,,,0.00,meteohub,2013-02-07 02:02:00,
2013-02-06 21:07:00,62.2,57.9,30.15,ENE,65,0.0,5.0,86,0.00,,,0.00,meteohub,2013-02-07 02:07:00,
2013-02-06 21:12:00,62.1,58.1,30.15,ENE,69,3.0,5.0,87,0.00,,,0.00,meteohub,2013-02-07 02:12:00,
2013-02-06 21:17:00,62.2,58.3,30.15,ENE,69,1.0,5.0,87,0.00,,,0.00,meteohub,2013-02-07 02:17:00,
2013-02-06 21:22:00,62.4,58.5,30.15,ENE,70,1.0,6.0,87,0.00,,,0.00,meteohub,2013-02-07 02:22:00,
2013-02-06 21:27:00,62.4,58.5,30.15,ENE,70,0.0,6.0,87,0.00,,,0.00,meteohub,2013-02-07 02:27:00,
2013-02-06 21:32:00,62.4,58.5,30.15,ENE,70,0.0,6.0,87,0.00,,,0.00,meteohub,2013-02-07 02:32:00,
2013-02-06 21:37:00,62.6,58.6,30.15,ENE,70,1.0,4.0,87,0.00,,,0.00,meteohub,2013-02-07 02:37:00,
2013-02-06 21:42:00,62.6,58.6,30.15,ENE,70,0.0,4.0,87,0.00,,,0.00,meteohub,2013-02-07 02:42:00,
2013-02-06 21:47:00,62.8,58.8,30.15,ENE,70,2.0,5.0,87,0.00,,,0.00,meteohub,2013-02-07 02:47:00,
2013-02-06 21:52:00,62.8,58.8,30.15,ENE,70,1.0,5.0,87,0.00,,,0.00,meteohub,2013-02-07 02:52:00,
2013-02-06 21:57:00,62.8,58.5,30.15,ENE,70,0.0,5.0,86,0.00,,,0.00,meteohub,2013-02-07 02:57:00,
2013-02-06 22:02:00,62.8,58.8,30.16,ENE,70,0.0,5.0,87,0.00,,,0.00,meteohub,2013-02-07 03:02:00,
2013-02-06 22:07:00,62.8,58.8,30.15,ENE,70,0.0,3.0,87,0.00,,,0.00,meteohub,2013-02-07 03:07:00,
2013-02-06 22:12:00,62.8,58.8,30.15,ENE,70,0.0,2.0,87,0.00,,,0.00,meteohub,2013-02-07 03:12:00,
2013-02-06 22:17:00,62.8,58.8,30.15,ENE,70,0.0,2.0,87,0.00,,,0.00,meteohub,2013-02-07 03:17:00,
2013-02-06 22:22:00,62.6,58.6,30.15,ENE,70,0.0,2.0,87,0.00,,,0.00,meteohub,2013-02-07 03:22:00,
2013-02-06 22:27:00,62.4,58.5,30.15,ENE,70,0.0,2.0,87,0.00,,,0.00,meteohub,2013-02-07 03:27:00,
2013-02-06 22:32:00,62.2,58.3,30.15,ENE,70,0.0,2.0,87,0.00,,,0.00,meteohub,2013-02-07 03:32:00,
2013-02-06 22:37:00,62.1,58.5,30.15,ENE,70,0.0,2.0,88,0.00,,,0.00,meteohub,2013-02-07 03:37:00,
2013-02-06 22:42:00,62.1,58.5,30.15,ENE,70,0.0,2.0,88,0.00,,,0.00,meteohub,2013-02-07 03:42:00,
2013-02-06 22:47:00,61.9,58.3,30.15,ENE,70,1.0,2.0,88,0.00,,,0.00,meteohub,2013-02-07 03:47:00,
2013-02-06 22:52:00,62.1,58.5,30.15,ENE,70,0.0,2.0,88,0.00,,,0.00,meteohub,2013-02-07 03:52:00,
2013-02-06 22:57:00,62.1,58.5,30.15,ENE,70,0.0,2.0,88,0.00,,,0.00,meteohub,2013-02-07 03:57:00,
2013-02-06 23:02:00,62.1,58.5,30.15,ENE,70,0.0,2.0,88,0.00,,,0.00,meteohub,2013-02-07 04:02:00,
2013-02-06 23:07:00,62.1,58.5,30.15,ENE,70,0.0,1.0,88,0.00,,,0.00,meteohub,2013-02-07 04:07:00,
2013-02-06 23:12:00,61.9,58.3,30.15,ENE,70,0.0,1.0,88,0.00,,,0.00,meteohub,2013-02-07 04:12:00,
2013-02-06 23:17:00,61.9,58.3,30.14,ENE,70,0.0,1.0,88,0.00,,,0.00,meteohub,2013-02-07 04:17:00,
2013-02-06 23:22:00,61.9,58.6,30.14,ENE,70,0.0,2.0,89,0.00,,,0.00,meteohub,2013-02-07 04:22:00,
2013-02-06 23:27:00,61.7,58.5,30.14,ENE,70,0.0,2.0,89,0.00,,,0.00,meteohub,2013-02-07 04:27:00,
2013-02-06 23:32:00,61.9,58.6,30.14,ENE,70,0.0,3.0,89,0.00,,,0.00,meteohub,2013-02-07 04:32:00,
2013-02-06 23:37:00,61.7,58.5,30.14,ENE,70,0.0,3.0,89,0.00,,,0.00,meteohub,2013-02-07 04:37:00,
2013-02-06 23:42:00,61.5,58.3,30.14,ENE,70,0.0,3.0,89,0.00,,,0.00,meteohub,2013-02-07 04:42:00,
2013-02-06 23:47:00,61.5,58.3,30.14,ENE,70,0.0,2.0,89,0.00,,,0.00,meteohub,2013-02-07 04:47:00,
2013-02-06 23:52:00,61.7,58.5,30.14,ENE,70,0.0,3.0,89,0.00,,,0.00,meteohub,2013-02-07 04:52:00,
2013-02-06 23:57:00,61.7,58.5,30.14,ENE,70,0.0,3.0,89,0.00,,,0.00,meteohub,2013-02-07 04:57:00,